createdAt,value
2023-05-24T00:02:16.774Z,25.92
2023-05-24T00:04:45.457Z,25.50
2023-05-24T00:07:12.776Z,24.02
2023-05-24T00:09:39.906Z,27.10
2023-05-24T00:12:07.289Z,27.30
2023-05-24T00:14:34.533Z,31.00
2023-05-24T00:17:01.797Z,29.38
2023-05-24T00:19:29.584Z,28.88
2023-05-24T00:21:56.885Z,29.35
2023-05-24T00:24:24.044Z,28.33
2023-05-24T00:26:51.187Z,27.58
2023-05-24T00:29:18.327Z,29.73
2023-05-24T00:31:45.590Z,31.05
2023-05-24T00:34:12.706Z,33.88
2023-05-24T00:36:39.813Z,30.50
2023-05-24T00:39:07.149Z,29.70
2023-05-24T00:41:34.507Z,28.05
2023-05-24T00:44:01.760Z,29.75
2023-05-24T00:46:31.185Z,29.50
2023-05-24T00:48:59.170Z,28.80
2023-05-24T00:51:30.429Z,28.33
2023-05-24T00:53:57.709Z,23.25
2023-05-24T00:56:25.266Z,27.38
2023-05-24T00:58:56.262Z,25.40
2023-05-24T01:01:26.827Z,26.45
2023-05-24T01:03:54.647Z,25.20
2023-05-24T01:06:22.109Z,29.52
2023-05-24T01:09:13.648Z,24.08
2023-05-24T01:11:51.546Z,28.77
2023-05-24T01:14:26.663Z,22.05
2023-05-24T01:17:13.567Z,27.95
2023-05-24T01:19:43.630Z,26.63
2023-05-24T01:22:44.124Z,26.83
2023-05-24T01:25:29.367Z,23.38
2023-05-24T01:27:58.556Z,23.45
2023-05-24T01:30:29.238Z,26.85
2023-05-24T01:32:56.673Z,28.08
2023-05-24T01:35:23.864Z,26.60
2023-05-24T01:37:52.865Z,31.25
2023-05-24T01:40:20.200Z,31.85
2023-05-24T01:43:23.436Z,22.33
2023-05-24T01:46:08.860Z,27.63
2023-05-24T01:48:47.557Z,28.25
2023-05-24T01:51:18.598Z,23.00
2023-05-24T01:53:49.313Z,22.85
2023-05-24T01:56:19.763Z,24.92
2023-05-24T01:58:48.336Z,30.13
2023-05-24T02:01:15.840Z,23.80
2023-05-24T02:03:43.050Z,28.35
2023-05-24T02:06:10.973Z,22.20
2023-05-24T02:08:38.215Z,27.27
2023-05-24T02:11:05.570Z,29.83
2023-05-24T02:13:32.675Z,26.83
2023-05-24T02:15:59.978Z,27.13
2023-05-24T02:18:27.220Z,29.35
2023-05-24T02:20:54.333Z,27.58
2023-05-24T02:23:21.675Z,27.25
2023-05-24T02:25:48.971Z,25.85
2023-05-24T02:28:16.204Z,28.42
2023-05-24T02:30:45.209Z,27.60
2023-05-24T02:33:12.756Z,31.33
2023-05-24T02:35:41.703Z,25.42
2023-05-24T02:38:09.967Z,22.85
2023-05-24T02:40:37.259Z,23.13
2023-05-24T02:43:04.523Z,21.92
2023-05-24T02:45:31.641Z,27.15
2023-05-24T02:47:58.881Z,26.45
2023-05-24T02:50:26.136Z,29.65
2023-05-24T02:52:53.389Z,29.67
2023-05-24T02:55:20.559Z,26.50
2023-05-24T02:57:48.634Z,30.52
2023-05-24T03:00:16.274Z,26.95
2023-05-24T03:02:43.494Z,28.80
2023-05-24T03:05:10.881Z,28.50
2023-05-24T03:07:38.004Z,26.60
2023-05-24T03:10:05.747Z,22.23
2023-05-24T03:12:33.148Z,23.90
2023-05-24T03:15:00.334Z,28.05
2023-05-24T03:17:27.580Z,26.20
2023-05-24T03:19:57.177Z,29.52
2023-05-24T03:22:24.281Z,25.40
2023-05-24T03:24:51.387Z,25.02
2023-05-24T03:27:18.506Z,30.50
2023-05-24T03:29:45.625Z,24.08
2023-05-24T03:32:12.722Z,30.98
2023-05-24T03:34:39.797Z,29.73
2023-05-24T03:37:06.836Z,28.75
2023-05-24T03:39:33.955Z,24.25
2023-05-24T03:42:01.389Z,23.83
2023-05-24T03:44:28.437Z,27.00
2023-05-24T03:46:55.541Z,24.92
2023-05-24T03:49:22.653Z,27.90
2023-05-24T03:51:49.923Z,23.75
2023-05-24T03:54:18.420Z,26.58
2023-05-24T03:56:45.899Z,27.10
2023-05-24T03:59:13.093Z,28.15
2023-05-24T04:01:40.272Z,23.50
2023-05-24T04:04:07.525Z,22.52
2023-05-24T04:06:36.978Z,25.10
2023-05-24T04:09:05.957Z,24.63
2023-05-24T04:11:33.242Z,28.67
2023-05-24T04:14:00.822Z,26.40
2023-05-24T04:16:28.215Z,25.63
2023-05-24T04:18:56.874Z,25.38
2023-05-24T04:21:24.197Z,24.88
2023-05-24T04:23:51.351Z,25.98
2023-05-24T04:26:19.119Z,28.55
2023-05-24T04:28:47.024Z,23.50
2023-05-24T04:31:15.789Z,23.45
2023-05-24T04:33:43.031Z,22.33
2023-05-24T04:36:11.830Z,26.17
2023-05-24T04:38:39.892Z,24.38
2023-05-24T04:41:07.491Z,28.23
2023-05-24T04:43:35.241Z,31.10
2023-05-24T04:46:02.463Z,26.88
2023-05-24T04:48:29.613Z,29.98
2023-05-24T04:51:01.573Z,28.17
2023-05-24T04:53:29.134Z,25.35
2023-05-24T04:55:56.350Z,24.73
2023-05-24T04:58:23.443Z,26.10
2023-05-24T05:00:50.899Z,20.83
2023-05-24T05:03:18.058Z,27.48
2023-05-24T05:05:46.646Z,25.33
2023-05-24T05:08:17.157Z,23.23
2023-05-24T05:10:44.901Z,23.65
2023-05-24T05:13:12.094Z,21.20
2023-05-24T05:15:40.494Z,25.77
2023-05-24T05:18:08.806Z,26.35
2023-05-24T05:20:35.985Z,24.70
2023-05-24T05:23:03.492Z,28.67
2023-05-24T05:25:31.303Z,28.35
2023-05-24T05:27:58.460Z,22.90
2023-05-24T05:30:25.601Z,22.88
2023-05-24T05:32:52.818Z,26.70
2023-05-24T05:35:20.285Z,22.50
2023-05-24T05:37:47.353Z,23.92
2023-05-24T05:40:14.525Z,24.52
2023-05-24T05:42:41.763Z,22.33
2023-05-24T05:45:09.570Z,19.15
2023-05-24T05:47:36.720Z,19.88
2023-05-24T05:50:04.139Z,20.75
2023-05-24T05:52:31.435Z,20.95
2023-05-24T05:54:59.455Z,27.02
2023-05-24T05:57:27.231Z,24.95
2023-05-24T05:59:54.374Z,20.42
2023-05-24T06:02:24.714Z,26.77
2023-05-24T06:04:51.923Z,24.85
2023-05-24T06:07:21.988Z,23.35
2023-05-24T06:09:49.429Z,20.80
2023-05-24T06:12:16.813Z,23.77
2023-05-24T06:14:44.472Z,20.70
2023-05-24T06:17:11.576Z,24.10
2023-05-24T06:19:39.448Z,21.08
2023-05-24T06:22:06.803Z,21.45
2023-05-24T06:24:35.217Z,18.30
2023-05-24T06:27:04.683Z,24.55
2023-05-24T06:29:32.672Z,22.30
2023-05-24T06:32:00.120Z,22.75
2023-05-24T06:34:27.658Z,23.20
2023-05-24T06:36:54.728Z,19.08
2023-05-24T06:39:21.843Z,25.63
2023-05-24T06:41:51.485Z,22.38
2023-05-24T06:44:18.973Z,27.20
2023-05-24T06:46:46.674Z,21.40
2023-05-24T06:49:13.922Z,23.65
2023-05-24T06:51:41.129Z,19.13
2023-05-24T06:54:08.592Z,21.45
2023-05-24T06:56:35.850Z,26.77
2023-05-24T06:59:02.971Z,23.25
2023-05-24T07:01:30.742Z,24.77
2023-05-24T07:03:58.095Z,25.20
2023-05-24T07:06:25.323Z,23.63
2023-05-24T07:08:52.389Z,23.58
2023-05-24T07:11:20.295Z,25.63
2023-05-24T07:13:47.434Z,20.02
2023-05-24T07:16:14.562Z,21.58
2023-05-24T07:18:42.042Z,22.60
2023-05-24T07:21:09.474Z,23.33
2023-05-24T07:23:37.615Z,26.08
2023-05-24T07:26:05.524Z,22.20
2023-05-24T07:28:33.093Z,26.85
2023-05-24T07:31:00.581Z,22.23
2023-05-24T07:33:27.833Z,24.58
2023-05-24T07:35:55.004Z,24.42
2023-05-24T07:38:22.618Z,28.35
2023-05-24T07:40:49.794Z,22.90
2023-05-24T07:43:17.038Z,25.85
2023-05-24T07:45:44.280Z,22.30
2023-05-24T07:48:11.756Z,23.25
2023-05-24T07:50:39.287Z,22.27
2023-05-24T07:53:07.686Z,27.08
2023-05-24T07:55:34.747Z,25.15
2023-05-24T07:58:01.817Z,27.50
2023-05-24T08:00:30.297Z,28.80
2023-05-24T08:02:57.630Z,25.73
2023-05-24T08:05:24.785Z,25.35
2023-05-24T08:07:52.804Z,24.10
2023-05-24T08:10:23.580Z,22.73
2023-05-24T08:12:54.959Z,23.60
2023-05-24T08:15:22.020Z,24.92
2023-05-24T08:17:49.738Z,26.92
2023-05-24T08:20:17.998Z,25.13
2023-05-24T08:22:45.393Z,26.92
2023-05-24T08:25:12.550Z,21.92
2023-05-24T08:27:40.324Z,21.55
2023-05-24T08:30:10.568Z,25.40
2023-05-24T08:32:38.554Z,22.23
2023-05-24T08:35:18.572Z,25.55
2023-05-24T08:37:48.293Z,19.52
2023-05-24T08:40:15.714Z,27.33
2023-05-24T08:42:42.935Z,21.55
2023-05-24T08:45:14.915Z,29.42
2023-05-24T08:47:42.785Z,25.42
2023-05-24T08:50:11.458Z,26.40
2023-05-24T08:52:39.961Z,23.48
2023-05-24T08:55:07.972Z,22.85
2023-05-24T08:57:40.137Z,24.10
2023-05-24T09:00:10.603Z,22.77
2023-05-24T09:02:39.800Z,22.25
2023-05-24T09:05:11.071Z,30.25
2023-05-24T09:07:39.068Z,25.58
2023-05-24T09:10:07.889Z,30.52
2023-05-24T09:12:38.582Z,28.65
2023-05-24T09:15:08.208Z,25.63
2023-05-24T09:17:37.116Z,23.20
2023-05-24T09:20:10.609Z,24.45
2023-05-24T09:22:41.185Z,26.48
2023-05-24T09:25:11.174Z,24.58
2023-05-24T09:27:38.643Z,22.83
2023-05-24T09:30:13.010Z,23.35
2023-05-24T09:32:41.577Z,26.05
2023-05-24T09:35:10.142Z,25.35
2023-05-24T09:37:39.179Z,23.35
2023-05-24T09:40:09.103Z,24.65
2023-05-24T09:42:36.222Z,24.75
2023-05-24T09:45:09.608Z,23.83
2023-05-24T09:47:38.844Z,25.08
2023-05-24T09:50:13.047Z,21.42
2023-05-24T09:52:41.221Z,25.08
2023-05-24T09:55:16.157Z,27.00
2023-05-24T09:57:45.273Z,25.45
2023-05-24T10:00:21.925Z,24.67
2023-05-24T10:03:04.877Z,27.73
2023-05-24T10:05:32.310Z,24.85
2023-05-24T10:08:01.172Z,24.75
2023-05-24T10:10:30.188Z,23.98
2023-05-24T10:12:58.509Z,19.15
2023-05-24T10:15:26.370Z,24.88
2023-05-24T10:17:57.473Z,25.10
2023-05-24T10:20:24.953Z,26.17
2023-05-24T10:22:59.623Z,23.23
2023-05-24T10:25:28.852Z,19.90
2023-05-24T10:27:59.073Z,21.23
2023-05-24T10:30:37.973Z,25.45
2023-05-24T10:33:08.236Z,24.55
2023-05-24T10:35:38.442Z,24.13
2023-05-24T10:38:07.918Z,23.10
2023-05-24T10:40:35.821Z,22.80
2023-05-24T10:43:08.666Z,25.65
2023-05-24T10:45:42.358Z,23.13
2023-05-24T10:50:37.665Z,21.17
2023-05-24T10:53:15.118Z,19.20
2023-05-24T10:56:08.823Z,19.55
2023-05-24T10:59:00.497Z,21.67
2023-05-24T11:01:32.351Z,14.85
2023-05-24T11:04:17.117Z,24.83
2023-05-24T11:06:50.836Z,19.70
2023-05-24T11:11:50.238Z,16.42
2023-05-24T11:14:32.969Z,20.48
2023-05-24T11:17:01.156Z,16.98
2023-05-24T11:19:37.522Z,15.10
2023-05-24T11:22:08.336Z,19.80
2023-05-24T11:24:36.490Z,16.70
2023-05-24T11:27:04.054Z,17.70
2023-05-24T11:29:31.210Z,18.27
2023-05-24T11:32:11.292Z,14.68
2023-05-24T11:34:47.551Z,16.80
2023-05-24T11:37:17.500Z,19.95
2023-05-24T11:39:52.627Z,19.40
2023-05-24T11:42:23.622Z,18.73
2023-05-24T11:44:52.311Z,19.77
2023-05-24T11:47:21.571Z,15.30
2023-05-24T11:49:52.836Z,21.10
2023-05-24T11:52:20.428Z,18.88
2023-05-24T11:54:47.770Z,23.13
2023-05-24T11:57:15.939Z,22.60
2023-05-24T11:59:46.835Z,19.40
2023-05-24T12:02:14.650Z,25.08
2023-05-24T12:04:41.879Z,25.40
2023-05-24T12:07:15.587Z,24.42
2023-05-24T12:12:10.732Z,23.95
2023-05-24T12:14:43.628Z,24.08
2023-05-24T12:17:18.798Z,25.63
2023-05-24T12:19:50.271Z,23.55
2023-05-24T12:22:17.543Z,22.55
2023-05-24T12:24:44.731Z,21.00
2023-05-24T12:27:11.940Z,24.23
2023-05-24T12:29:41.956Z,21.42
2023-05-24T12:32:13.897Z,21.17
2023-05-24T12:34:43.079Z,22.92
2023-05-24T12:37:12.937Z,27.25
2023-05-24T12:39:44.437Z,21.25
2023-05-24T12:42:14.669Z,26.00
2023-05-24T12:44:45.649Z,23.77
2023-05-24T12:47:13.080Z,25.13
2023-05-24T12:49:40.427Z,27.52
2023-05-24T12:52:07.709Z,31.58
2023-05-24T12:54:37.623Z,24.42
2023-05-24T12:57:05.343Z,24.48
2023-05-24T12:59:33.574Z,23.92
2023-05-24T13:02:00.984Z,29.20
2023-05-24T13:04:28.285Z,26.58
2023-05-24T13:06:55.878Z,23.17
2023-05-24T13:09:23.874Z,21.67
2023-05-24T13:11:52.747Z,20.75
2023-05-24T13:14:20.432Z,21.23
2023-05-24T13:16:48.199Z,21.58
2023-05-24T13:19:15.541Z,20.10
2023-05-24T13:21:42.861Z,24.67
2023-05-24T13:24:10.263Z,20.75
2023-05-24T13:26:39.046Z,17.30
2023-05-24T13:31:41.335Z,24.30
2023-05-24T13:34:10.525Z,17.73
2023-05-24T13:36:38.373Z,22.98
2023-05-24T13:41:39.027Z,19.55
2023-05-24T13:44:07.442Z,18.50
2023-05-24T13:46:36.754Z,17.52
2023-05-24T13:49:04.778Z,18.05
2023-05-24T13:51:33.288Z,19.70
2023-05-24T13:54:01.384Z,20.45
2023-05-24T13:56:33.266Z,19.15
2023-05-24T13:59:04.871Z,24.63
2023-05-24T14:01:33.232Z,27.73
2023-05-24T14:04:01.854Z,18.05
2023-05-24T14:06:29.112Z,23.27
2023-05-24T14:08:56.323Z,25.88
2023-05-24T14:16:22.250Z,19.30
2023-05-24T14:18:51.899Z,17.20
2023-05-24T14:21:21.839Z,17.38
2023-05-24T14:23:49.698Z,17.65
2023-05-24T14:26:17.456Z,17.80
2023-05-24T14:28:44.599Z,19.08
2023-05-24T14:31:11.826Z,18.42
2023-05-24T14:33:39.050Z,16.17
2023-05-24T14:36:06.691Z,18.55
2023-05-24T14:38:33.834Z,19.45
2023-05-24T14:41:01.812Z,17.55
2023-05-24T14:43:29.474Z,18.92
2023-05-24T14:45:56.699Z,17.10
2023-05-24T14:48:23.891Z,14.70
2023-05-24T14:50:50.967Z,16.55
2023-05-24T14:53:18.121Z,18.60
2023-05-24T14:55:45.367Z,16.48
2023-05-24T14:58:12.894Z,16.83
2023-05-24T15:00:41.543Z,17.60
2023-05-24T15:03:09.350Z,16.25
2023-05-24T15:05:36.913Z,15.25
2023-05-24T15:08:05.760Z,13.68
2023-05-24T15:10:33.546Z,13.77
2023-05-24T15:13:01.696Z,15.02
2023-05-24T15:15:29.064Z,14.85
2023-05-24T15:17:57.787Z,15.20
2023-05-24T15:20:25.919Z,16.20
2023-05-24T15:22:53.364Z,17.35
2023-05-24T15:25:21.164Z,15.60
2023-05-24T15:27:58.166Z,18.58
2023-05-24T15:30:25.296Z,17.77
2023-05-24T15:32:52.392Z,17.58
2023-05-24T15:35:19.704Z,15.05
2023-05-24T15:37:46.787Z,14.93
2023-05-24T15:40:15.205Z,16.75
2023-05-24T15:42:42.392Z,18.70
2023-05-24T15:45:10.134Z,16.90
2023-05-24T15:47:40.085Z,16.63
2023-05-24T15:50:08.712Z,14.90
2023-05-24T15:52:36.665Z,18.02
2023-05-24T15:55:04.793Z,24.88
2023-05-24T15:57:32.365Z,18.00
2023-05-24T15:59:59.508Z,15.15
2023-05-24T16:02:27.219Z,15.57
2023-05-24T16:04:55.659Z,18.58
2023-05-24T16:07:26.244Z,19.73
2023-05-24T16:09:54.222Z,16.30
2023-05-24T16:12:26.130Z,18.70
2023-05-24T16:14:54.397Z,17.45
2023-05-24T16:17:21.607Z,18.17
2023-05-24T16:19:49.882Z,19.30
2023-05-24T16:22:17.447Z,17.13
2023-05-24T16:24:47.725Z,17.45
2023-05-24T16:27:15.121Z,15.45
2023-05-24T16:29:42.456Z,16.10
2023-05-24T16:32:09.809Z,14.82
2023-05-24T16:34:54.875Z,14.45
2023-05-24T16:37:23.052Z,14.13
2023-05-24T16:39:50.362Z,15.95
2023-05-24T16:42:17.634Z,19.38
2023-05-24T16:44:47.926Z,17.13
2023-05-24T16:47:15.528Z,16.33
2023-05-24T16:49:42.593Z,13.73
2023-05-24T16:52:09.715Z,16.67
2023-05-24T16:54:36.852Z,12.18
2023-05-24T16:57:04.033Z,13.55
2023-05-24T16:59:31.506Z,16.13
2023-05-24T17:01:58.765Z,14.02
2023-05-24T17:04:26.178Z,16.20
2023-05-24T17:06:53.579Z,13.88
2023-05-24T17:09:20.987Z,13.07
2023-05-24T17:11:49.359Z,17.77
2023-05-24T17:14:17.980Z,14.38
2023-05-24T17:16:45.730Z,11.52
2023-05-24T17:19:14.200Z,21.10
2023-05-24T17:21:41.483Z,14.27
2023-05-24T17:24:08.638Z,14.57
2023-05-24T17:26:35.921Z,13.82
2023-05-24T17:29:03.419Z,18.08
2023-05-24T17:31:30.679Z,14.25
2023-05-24T17:34:01.059Z,15.52
2023-05-24T17:36:28.367Z,13.82
2023-05-24T17:38:55.566Z,14.63
2023-05-24T17:41:26.315Z,14.02
2023-05-24T17:43:53.482Z,14.05
2023-05-24T17:46:20.831Z,14.02
2023-05-24T17:48:48.021Z,15.45
2023-05-24T17:51:17.732Z,15.95
2023-05-24T17:53:48.279Z,13.45
2023-05-24T17:56:15.655Z,13.43
2023-05-24T17:58:44.928Z,14.25
2023-05-24T18:01:14.036Z,13.57
2023-05-24T18:03:43.188Z,14.40
2023-05-24T18:06:13.040Z,12.40
2023-05-24T18:08:43.813Z,12.68
2023-05-24T18:11:13.623Z,13.45
2023-05-24T18:13:43.240Z,10.43
2023-05-24T18:16:11.901Z,12.43
2023-05-24T18:18:39.405Z,13.93
2023-05-24T18:21:09.771Z,16.70
2023-05-24T18:23:39.825Z,14.73
2023-05-24T18:26:08.569Z,13.20
2023-05-24T18:28:39.402Z,13.20
2023-05-24T18:31:08.825Z,14.07
2023-05-24T18:33:37.998Z,16.58
2023-05-24T18:36:05.968Z,13.55
2023-05-24T18:38:37.413Z,15.60
2023-05-24T18:41:06.506Z,17.13
2023-05-24T18:43:36.992Z,14.18
2023-05-24T18:46:04.574Z,16.73
2023-05-24T18:48:31.821Z,13.07
2023-05-24T18:50:58.972Z,14.23
2023-05-24T18:53:26.127Z,16.75
2023-05-24T18:55:53.702Z,15.05
2023-05-24T18:58:21.244Z,14.18
2023-05-24T19:00:48.448Z,16.38
2023-05-24T19:03:15.641Z,16.77
2023-05-24T19:05:44.133Z,15.65
2023-05-24T19:08:11.722Z,14.95
2023-05-24T19:10:38.970Z,13.95
2023-05-24T19:13:06.654Z,15.10
2023-05-24T19:15:35.650Z,16.00
2023-05-24T19:18:03.927Z,16.42
2023-05-24T19:20:31.232Z,13.65
2023-05-24T19:22:58.933Z,15.05
2023-05-24T19:25:26.045Z,14.13
2023-05-24T19:30:23.435Z,12.15
2023-05-24T19:32:51.101Z,14.88
2023-05-24T19:35:18.227Z,13.95
2023-05-24T19:37:45.481Z,12.98
2023-05-24T19:40:12.534Z,14.55
2023-05-24T19:42:39.602Z,15.02
2023-05-24T19:45:07.453Z,13.13
2023-05-24T19:47:34.708Z,11.95
2023-05-24T19:50:02.029Z,13.95
2023-05-24T19:52:29.239Z,13.93
2023-05-24T19:54:59.047Z,13.05
2023-05-24T19:57:26.595Z,11.68
2023-05-24T19:59:53.728Z,14.95
2023-05-24T20:02:21.150Z,13.55
2023-05-24T20:04:49.272Z,12.55
2023-05-24T20:07:16.502Z,12.93
2023-05-24T20:09:44.371Z,11.93
2023-05-24T20:12:12.194Z,14.10
2023-05-24T20:14:39.378Z,13.70
2023-05-24T20:17:06.572Z,12.57
2023-05-24T20:19:33.684Z,16.08
2023-05-24T20:22:00.836Z,13.05
2023-05-24T20:24:27.910Z,14.07
2023-05-24T20:26:54.983Z,12.02
2023-05-24T20:29:22.087Z,14.20
2023-05-24T20:31:49.558Z,11.43
2023-05-24T20:34:16.823Z,12.13
2023-05-24T20:36:46.382Z,14.10
2023-05-24T20:39:13.464Z,11.55
2023-05-24T20:41:40.607Z,14.93
2023-05-24T20:44:07.714Z,12.88
2023-05-24T20:46:35.001Z,13.18
2023-05-24T20:49:02.460Z,15.25
2023-05-24T20:51:29.616Z,16.25
2023-05-24T20:54:00.047Z,15.50
2023-05-24T20:56:27.663Z,14.90
2023-05-24T20:58:56.792Z,11.65
2023-05-24T21:01:24.270Z,15.88
2023-05-24T21:03:51.485Z,16.77
2023-05-24T21:06:21.017Z,11.82
2023-05-24T21:08:48.552Z,12.00
2023-05-24T21:11:15.726Z,13.98
2023-05-24T21:13:42.842Z,12.73
2023-05-24T21:16:10.379Z,9.75
2023-05-24T21:18:37.630Z,11.38
2023-05-24T21:21:06.238Z,13.45
2023-05-24T21:23:33.384Z,9.48
2023-05-24T21:26:03.233Z,12.73
2023-05-24T21:28:30.271Z,16.17
2023-05-24T21:30:57.736Z,12.88
2023-05-24T21:33:24.962Z,10.07
2023-05-24T21:35:52.052Z,11.43
2023-05-24T21:38:19.122Z,12.65
2023-05-24T21:40:46.465Z,16.08
2023-05-24T21:43:13.566Z,14.55
2023-05-24T21:45:41.188Z,14.95
2023-05-24T21:48:08.921Z,13.75
2023-05-24T21:50:36.090Z,13.13
2023-05-24T21:53:03.567Z,14.02
2023-05-24T21:55:30.801Z,15.27
2023-05-24T21:57:57.860Z,14.00
2023-05-24T22:00:27.111Z,16.00
2023-05-24T22:02:54.649Z,14.63
2023-05-24T22:05:21.818Z,12.38
2023-05-24T22:07:48.983Z,16.42
2023-05-24T22:10:16.142Z,14.32
2023-05-24T22:12:43.198Z,15.73
2023-05-24T22:15:11.011Z,15.68
2023-05-24T22:17:41.181Z,12.52
2023-05-24T22:20:09.502Z,15.15
2023-05-24T22:22:48.962Z,17.38
2023-05-24T22:25:19.661Z,14.02
2023-05-24T22:27:48.753Z,16.27
2023-05-24T22:30:17.359Z,20.08
2023-05-24T22:32:44.675Z,16.92
2023-05-24T22:35:11.894Z,16.05
2023-05-24T22:37:39.058Z,20.70
2023-05-24T22:40:06.739Z,17.73
2023-05-24T22:42:33.923Z,17.27
2023-05-24T22:45:01.135Z,16.23
2023-05-24T22:47:33.411Z,16.95
2023-05-24T22:50:02.280Z,14.23
2023-05-24T22:52:30.486Z,14.60
2023-05-24T22:54:57.612Z,16.00
2023-05-24T22:57:24.813Z,12.25
2023-05-24T22:59:52.036Z,12.02
2023-05-24T23:02:19.425Z,12.90
2023-05-24T23:04:46.665Z,14.82
2023-05-24T23:07:17.433Z,13.65
2023-05-24T23:09:44.657Z,15.55
2023-05-24T23:12:12.144Z,15.68
2023-05-24T23:14:41.865Z,15.10
2023-05-24T23:17:15.690Z,13.50
2023-05-24T23:19:46.674Z,15.50
2023-05-24T23:22:18.477Z,14.18
2023-05-24T23:24:47.702Z,15.63
2023-05-24T23:27:15.215Z,14.75
2023-05-24T23:29:42.369Z,14.18
2023-05-24T23:32:10.412Z,15.27
2023-05-24T23:34:37.722Z,13.50
2023-05-24T23:37:05.853Z,12.80
2023-05-24T23:39:32.969Z,14.82
2023-05-24T23:42:00.056Z,11.80
2023-05-24T23:44:27.104Z,14.23
2023-05-24T23:46:54.260Z,11.77
2023-05-24T23:49:21.574Z,10.57
2023-05-24T23:51:48.804Z,14.10
2023-05-24T23:54:16.123Z,13.20
2023-05-24T23:56:43.244Z,13.80
2023-05-24T23:59:10.617Z,16.10
